Autumn — V7QA6 — position and weather

sailwx.info

Track history (hours):
 
Tides and Currents Weather Stations Pressure Air Temp Water Temp Dewpoint Dewpoint Depression Visibility Wind Speed Wind Dir Waves Ship Positions

Autumn

Last reported at 2016-Feb-11 12:31 UTC. Time now 2016-Feb-11 13:04 UTC.
Position N 52°24' E 004°52'.

Length 129 m; draft 6.2 m.

Type: Tanker. MMSI: 538003323.

Date/timePositionNaut miles runAvg speedWind from/ knotsBaromVisibWave heightAir tempDewpointWater temp
2016-Feb-11 12:31N 52°24' E 004°52'0 0.5
2016-Feb-11 11:34N 52°25' E 004°52'3 2.8
2016-Feb-11 10:26N 52°25' E 004°46'0 0.0
2016-Feb-11 09:32N 52°25' E 004°46'0 0.0
2016-Feb-11 08:32N 52°25' E 004°46'0 0.0
2016-Feb-11 07:32N 52°25' E 004°46'0 0.0
2016-Feb-11 06:32N 52°25' E 004°46'0 0.0
2016-Feb-11 05:32N 52°25' E 004°46'0 0.0
2016-Feb-11 04:32N 52°25' E 004°46'0 0.0
2016-Feb-11 03:32N 52°25' E 004°46'0 0.0
2016-Feb-11 02:29N 52°25' E 004°46'0 0.0
2016-Feb-11 01:32N 52°25' E 004°46'0 0.0
2016-Feb-11 00:32N 52°25' E 004°46'0 0.0
2016-Feb-10 23:32N 52°25' E 004°46'0 0.0
2016-Feb-10 22:32N 52°25' E 004°46'0 0.0
2016-Feb-10 21:32N 52°25' E 004°46'0 0.0
2016-Feb-10 20:32N 52°25' E 004°46'0 0.0
2016-Feb-10 19:32N 52°25' E 004°46'0 0.0
2016-Feb-10 18:32N 52°25' E 004°46'0 0.0
2016-Feb-10 17:32N 52°25' E 004°46'0 0.0
2016-Feb-10 16:32N 52°25' E 004°46'4 3.9
2016-Feb-10 15:33N 52°27' E 004°41'3 3.0
2016-Feb-10 14:33N 52°28' E 004°36'6 5.6
2016-Feb-10 13:33N 52°29' E 004°27'10 9.7
2016-Feb-10 12:33N 52°29' E 004°11'1211.9
2016-Feb-10 11:33N 52°26' E 003°52'1211.5
2016-Feb-10 10:33N 52°22' E 003°34'1110.9
2016-Feb-10 09:33N 52°16' E 003°20'1311.0
2016-Feb-10 08:25N 52°07' E 003°06'3612.5
2016-Feb-10 05:33N 51°40' E 002°28'1413.7
2016-Feb-10 04:33N 51°29' E 002°14'1414.2
2016-Feb-10 03:34N 51°16' E 002°06'1514.6
2016-Feb-10 02:34N 51°07' E 001°47'1616.0
2016-Feb-10 01:33N 50°56' E 001°30'  
2016-Feb-07 13:29N 53°23' W 003°57'1112.0
2016-Feb-07 12:33N 53°24' W 003°38'1211.8
2016-Feb-07 11:33N 53°29' W 003°20'9 9.1
2016-Feb-07 10:33N 53°30' W 003°05'1010.1
2016-Feb-07 09:33N 53°20' W 002°58'2 1.6
2016-Feb-07 08:33N 53°19' W 002°57'3 3.4
2016-Feb-07 07:33N 53°17' W 002°52'0 0.1
2016-Feb-07 06:32N 53°17' W 002°52'0 0.0
2016-Feb-07 05:32N 53°17' W 002°52'0 0.0
2016-Feb-07 04:26N 53°17' W 002°52'0 0.0
2016-Feb-07 03:32N 53°17' W 002°52'0 0.0
2016-Feb-07 02:32N 53°17' W 002°52'0 0.0
2016-Feb-07 01:32N 53°17' W 002°52'0 0.0
2016-Feb-07 00:32N 53°17' W 002°52'0 0.0
2016-Feb-06 23:32N 53°17' W 002°52'0 0.0
2016-Feb-06 22:32N 53°17' W 002°52'0 0.0
2016-Feb-06 21:32N 53°17' W 002°52'0 0.0
2016-Feb-06 20:32N 53°17' W 002°52'0 0.0
2016-Feb-06 19:32N 53°17' W 002°52'0 0.0
2016-Feb-06 18:32N 53°17' W 002°52'0 0.0
2016-Feb-06 17:32N 53°17' W 002°52'0 0.0
2016-Feb-05 23:28N 53°17' W 002°52'1 0.9
2016-Feb-05 22:33N 53°17' W 002°53'3 3.0
2016-Feb-05 21:33N 53°19' W 002°57'5 5.2
2016-Feb-05 20:33N 53°24' W 003°00'1010.0
2016-Feb-05 19:33N 53°31' W 003°12'9 8.6
2016-Feb-05 18:32N 53°31' W 003°27'1110.8
2016-Feb-05 17:33N 53°30' W 003°45'10 1.2
2016-Feb-05 09:10N 53°28' W 004°01'221 6.1
2016-Feb-03 21:17N 50°22' W 000°48'3211.8
2016-Feb-03 18:33N 50°29' E 000°02'1110.6
2016-Feb-03 17:33N 50°31' E 000°18'3611.3
2016-Feb-03 14:25N 50°51' E 001°04'1112.8
2016-Feb-03 13:33N 50°59' E 001°17'1313.0
2016-Feb-03 12:33N 51°07' E 001°33'1212.3
2016-Feb-03 11:33N 51°16' E 001°47'1211.7
2016-Feb-03 10:33N 51°26' E 001°56'1111.0
2016-Feb-03 09:33N 51°35' E 002°06'1110.7
2016-Feb-03 08:33N 51°42' E 002°18'7610.7
2016-Feb-03 01:25N 52°31' E 003°54'8 9.0
2016-Feb-03 00:33N 52°31' E 004°07'8 8.2
2016-Feb-02 23:33N 52°30' E 004°20'8 8.1
2016-Feb-02 22:33N 52°28' E 004°33'2 2.1
2016-Feb-02 21:34N 52°28' E 004°37'6 5.9
2016-Feb-02 20:33N 52°25' E 004°45'0 0.0
2016-Feb-02 19:27N 52°25' E 004°45'0 0.0
2016-Feb-02 02:32N 52°25' E 004°45'0 0.0
2016-Feb-02 01:23N 52°25' E 004°45'2 2.4
2016-Feb-02 00:33N 52°26' E 004°42'4 4.2
2016-Feb-01 23:34N 52°28' E 004°36'6 5.7
2016-Feb-01 22:33N 52°28' E 004°27'7 7.4
2016-Feb-01 21:34N 52°29' E 004°15'4 3.8
2016-Feb-01 20:28N 52°27' E 004°08'0 0.0
2016-Feb-01 19:22N 52°27' E 004°08'0 0.0
2016-Feb-01 18:28N 52°27' E 004°08'0 0.0
2016-Feb-01 17:22N 52°27' E 004°08'0 0.0
2016-Feb-01 16:31N 52°27' E 004°08'0 0.0
2016-Feb-01 15:28N 52°27' E 004°08'0 0.0
2016-Feb-01 14:28N 52°27' E 004°08'0 0.0
2016-Feb-01 13:22N 52°27' E 004°08'0 0.0
2016-Feb-01 12:31N 52°27' E 004°08'  
Track history (hours):
 
Tides and Currents Weather Stations Pressure Air Temp Water Temp Dewpoint Dewpoint Depression Visibility Wind Speed Wind Dir Waves Ship Positions

Autumn

Last reported at 2016-Feb-11 12:31 UTC. Time now 2016-Feb-11 13:04 UTC.
Position N 52°24' E 004°52'.

Length 129 m; draft 6.2 m.

Type: Tanker. MMSI: 538003323.

Date/timePositionNaut miles runAvg speedWind from/ knotsBaromVisibWave heightAir tempDewpointWater temp
2016-Feb-11 12:31N 52°24' E 004°52'0 0.5
2016-Feb-11 11:34N 52°25' E 004°52'3 2.8
2016-Feb-11 10:26N 52°25' E 004°46'0 0.0
2016-Feb-11 09:32N 52°25' E 004°46'0 0.0
2016-Feb-11 08:32N 52°25' E 004°46'0 0.0
2016-Feb-11 07:32N 52°25' E 004°46'0 0.0
2016-Feb-11 06:32N 52°25' E 004°46'0 0.0
2016-Feb-11 05:32N 52°25' E 004°46'0 0.0
2016-Feb-11 04:32N 52°25' E 004°46'0 0.0
2016-Feb-11 03:32N 52°25' E 004°46'0 0.0
2016-Feb-11 02:29N 52°25' E 004°46'0 0.0
2016-Feb-11 01:32N 52°25' E 004°46'0 0.0
2016-Feb-11 00:32N 52°25' E 004°46'0 0.0
2016-Feb-10 23:32N 52°25' E 004°46'0 0.0
2016-Feb-10 22:32N 52°25' E 004°46'0 0.0
2016-Feb-10 21:32N 52°25' E 004°46'0 0.0
2016-Feb-10 20:32N 52°25' E 004°46'0 0.0
2016-Feb-10 19:32N 52°25' E 004°46'0 0.0
2016-Feb-10 18:32N 52°25' E 004°46'0 0.0
2016-Feb-10 17:32N 52°25' E 004°46'0 0.0
2016-Feb-10 16:32N 52°25' E 004°46'4 3.9
2016-Feb-10 15:33N 52°27' E 004°41'3 3.0
2016-Feb-10 14:33N 52°28' E 004°36'6 5.6
2016-Feb-10 13:33N 52°29' E 004°27'10 9.7
2016-Feb-10 12:33N 52°29' E 004°11'1211.9
2016-Feb-10 11:33N 52°26' E 003°52'1211.5
2016-Feb-10 10:33N 52°22' E 003°34'1110.9
2016-Feb-10 09:33N 52°16' E 003°20'1311.0
2016-Feb-10 08:25N 52°07' E 003°06'3612.5
2016-Feb-10 05:33N 51°40' E 002°28'1413.7
2016-Feb-10 04:33N 51°29' E 002°14'1414.2
2016-Feb-10 03:34N 51°16' E 002°06'1514.6
2016-Feb-10 02:34N 51°07' E 001°47'1616.0
2016-Feb-10 01:33N 50°56' E 001°30'  
2016-Feb-07 13:29N 53°23' W 003°57'1112.0
2016-Feb-07 12:33N 53°24' W 003°38'1211.8
2016-Feb-07 11:33N 53°29' W 003°20'9 9.1
2016-Feb-07 10:33N 53°30' W 003°05'1010.1
2016-Feb-07 09:33N 53°20' W 002°58'2 1.6
2016-Feb-07 08:33N 53°19' W 002°57'3 3.4
2016-Feb-07 07:33N 53°17' W 002°52'0 0.1
2016-Feb-07 06:32N 53°17' W 002°52'0 0.0
2016-Feb-07 05:32N 53°17' W 002°52'0 0.0
2016-Feb-07 04:26N 53°17' W 002°52'0 0.0
2016-Feb-07 03:32N 53°17' W 002°52'0 0.0
2016-Feb-07 02:32N 53°17' W 002°52'0 0.0
2016-Feb-07 01:32N 53°17' W 002°52'0 0.0
2016-Feb-07 00:32N 53°17' W 002°52'0 0.0
2016-Feb-06 23:32N 53°17' W 002°52'0 0.0
2016-Feb-06 22:32N 53°17' W 002°52'0 0.0
2016-Feb-06 21:32N 53°17' W 002°52'0 0.0
2016-Feb-06 20:32N 53°17' W 002°52'0 0.0
2016-Feb-06 19:32N 53°17' W 002°52'0 0.0
2016-Feb-06 18:32N 53°17' W 002°52'0 0.0
2016-Feb-06 17:32N 53°17' W 002°52'0 0.0
2016-Feb-05 23:28N 53°17' W 002°52'1 0.9
2016-Feb-05 22:33N 53°17' W 002°53'3 3.0
2016-Feb-05 21:33N 53°19' W 002°57'5 5.2
2016-Feb-05 20:33N 53°24' W 003°00'1010.0
2016-Feb-05 19:33N 53°31' W 003°12'9 8.6
2016-Feb-05 18:32N 53°31' W 003°27'1110.8
2016-Feb-05 17:33N 53°30' W 003°45'10 1.2
2016-Feb-05 09:10N 53°28' W 004°01'221 6.1
2016-Feb-03 21:17N 50°22' W 000°48'3211.8
2016-Feb-03 18:33N 50°29' E 000°02'1110.6
2016-Feb-03 17:33N 50°31' E 000°18'3611.3
2016-Feb-03 14:25N 50°51' E 001°04'1112.8
2016-Feb-03 13:33N 50°59' E 001°17'1313.0
2016-Feb-03 12:33N 51°07' E 001°33'1212.3
2016-Feb-03 11:33N 51°16' E 001°47'1211.7
2016-Feb-03 10:33N 51°26' E 001°56'1111.0
2016-Feb-03 09:33N 51°35' E 002°06'1110.7
2016-Feb-03 08:33N 51°42' E 002°18'7610.7
2016-Feb-03 01:25N 52°31' E 003°54'8 9.0
2016-Feb-03 00:33N 52°31' E 004°07'8 8.2
2016-Feb-02 23:33N 52°30' E 004°20'8 8.1
2016-Feb-02 22:33N 52°28' E 004°33'2 2.1
2016-Feb-02 21:34N 52°28' E 004°37'6 5.9
2016-Feb-02 20:33N 52°25' E 004°45'0 0.0
2016-Feb-02 19:27N 52°25' E 004°45'0 0.0
2016-Feb-02 02:32N 52°25' E 004°45'0 0.0
2016-Feb-02 01:23N 52°25' E 004°45'2 2.4
2016-Feb-02 00:33N 52°26' E 004°42'4 4.2
2016-Feb-01 23:34N 52°28' E 004°36'6 5.7
2016-Feb-01 22:33N 52°28' E 004°27'7 7.4
2016-Feb-01 21:34N 52°29' E 004°15'4 3.8
2016-Feb-01 20:28N 52°27' E 004°08'0 0.0
2016-Feb-01 19:22N 52°27' E 004°08'0 0.0
2016-Feb-01 18:28N 52°27' E 004°08'0 0.0
2016-Feb-01 17:22N 52°27' E 004°08'0 0.0
2016-Feb-01 16:31N 52°27' E 004°08'0 0.0
2016-Feb-01 15:28N 52°27' E 004°08'0 0.0
2016-Feb-01 14:28N 52°27' E 004°08'0 0.0
2016-Feb-01 13:22N 52°27' E 004°08'0 0.0
2016-Feb-01 12:31N 52°27' E 004°08'  

Dump ship's entire track history